Terminal Aerodrome Forecast
Issued by NWS Wakefield, VA

Home | Current Version | Previous Version | Text Only | Print | Product List | Glossary On
Versions: 1 2 3 4 5 6 7 8 9 10 11 12 13 14
217
FTUS41 KAKQ 090547 RRA
TAFRIC
TAF
KRIC 090547Z 0906/1006 12004KT P6SM BKN025 OVC080
      TEMPO 0906/0910 OVC015
     FM091000 26004KT P6SM BKN015 BKN080
     FM091600 27012G18KT P6SM BKN050
     FM100000 27008KT P6SM OVC050=

USA.gov is the U.S. government's official web portal to all federal, state and local government web resources and services.